createdAt,value
2024-02-09T00:00:30.782Z,98813.34
2024-02-09T00:02:59.869Z,98805.06
2024-02-09T00:05:26.471Z,98806.44
2024-02-09T00:07:53.085Z,98798.16
2024-02-09T00:10:20.764Z,98798.72
2024-02-09T00:12:52.470Z,98798.22
2024-02-09T00:15:21.528Z,98788.94
2024-02-09T00:17:51.271Z,98788.28
2024-02-09T00:20:17.916Z,98780.22
2024-02-09T00:22:45.290Z,98778.03
2024-02-09T00:25:13.312Z,98773.59
2024-02-09T00:27:40.813Z,98772.63
2024-02-09T00:30:11.928Z,98771.25
2024-02-09T00:32:38.480Z,98768.41
2024-02-09T00:35:05.656Z,98760.50
2024-02-09T00:37:32.523Z,98755.13
2024-02-09T00:39:59.454Z,98748.91
2024-02-09T00:42:26.117Z,98746.81
2024-02-09T00:44:52.981Z,98731.69
2024-02-09T00:47:19.456Z,98723.50
2024-02-09T00:49:47.325Z,98714.31
2024-02-09T00:52:15.928Z,98717.50
2024-02-09T00:54:43.037Z,98715.00
2024-02-09T00:57:09.597Z,98706.50
2024-02-09T00:59:40.216Z,98702.25
2024-02-09T01:02:08.303Z,98708.03
2024-02-09T01:04:39.296Z,98701.72
2024-02-09T01:07:07.745Z,98689.38
2024-02-09T01:09:35.242Z,98694.19
2024-02-09T01:12:06.133Z,98684.97
2024-02-09T01:14:51.149Z,98678.63
2024-02-09T01:17:36.271Z,98671.66
2024-02-09T01:20:21.474Z,98678.19
2024-02-09T01:23:06.650Z,98662.91
2024-02-09T01:25:51.764Z,98651.97
2024-02-09T01:28:37.240Z,98635.47
2024-02-09T01:31:22.844Z,98640.22
2024-02-09T01:34:08.025Z,98640.16
2024-02-09T01:36:53.289Z,98639.25
2024-02-09T01:39:38.504Z,98635.97
2024-02-09T01:42:23.309Z,98644.63
2024-02-09T01:45:08.331Z,98630.88
2024-02-09T01:47:53.620Z,98640.22
2024-02-09T01:50:39.344Z,98629.13
2024-02-09T01:53:24.373Z,98630.50
2024-02-09T01:56:12.723Z,98631.00
2024-02-09T01:58:58.011Z,98627.66
2024-02-09T02:01:43.491Z,98624.03
2024-02-09T02:04:29.553Z,98618.25
2024-02-09T02:07:18.974Z,98615.63
2024-02-09T02:10:03.981Z,98610.75
2024-02-09T02:12:51.614Z,98607.16
2024-02-09T02:15:36.436Z,98606.31
2024-02-09T02:18:21.699Z,98600.16
2024-02-09T02:21:07.099Z,98597.38
2024-02-09T02:23:55.307Z,98587.25
2024-02-09T02:26:40.853Z,98578.84
2024-02-09T02:29:25.697Z,98582.53
2024-02-09T02:32:10.956Z,98573.09
2024-02-09T02:34:56.602Z,98564.69
2024-02-09T02:37:41.810Z,98567.84
2024-02-09T02:40:27.677Z,98548.16
2024-02-09T02:42:54.220Z,98537.38
2024-02-09T02:45:20.788Z,98531.94
2024-02-09T02:48:07.766Z,98549.34
2024-02-09T02:50:53.117Z,98544.38
2024-02-09T02:53:37.847Z,98534.56
2024-02-09T02:56:23.465Z,98535.56
2024-02-09T02:59:08.582Z,98524.94
2024-02-09T03:01:53.812Z,98525.78
2024-02-09T03:04:20.512Z,98517.84
2024-02-09T03:07:04.048Z,98510.69
2024-02-09T03:09:34.134Z,98505.22
2024-02-09T03:12:01.611Z,98504.06
2024-02-09T03:14:29.455Z,98509.38
2024-02-09T03:16:58.947Z,98500.44
2024-02-09T03:19:25.754Z,98495.28
2024-02-09T03:21:55.380Z,98498.63
2024-02-09T03:24:22.157Z,98496.09
2024-02-09T03:26:49.046Z,98486.31
2024-02-09T03:29:15.552Z,98483.34
2024-02-09T03:31:43.300Z,98482.69
2024-02-09T03:34:10.106Z,98482.38
2024-02-09T03:36:37.080Z,98480.69
2024-02-09T03:39:03.708Z,98471.75
2024-02-09T03:41:31.621Z,98468.28
2024-02-09T03:44:05.024Z,98475.06
2024-02-09T03:46:34.960Z,98461.13
2024-02-09T03:49:01.824Z,98458.47
2024-02-09T03:51:28.664Z,98458.47
2024-02-09T03:53:55.083Z,98452.84
2024-02-09T03:56:21.827Z,98445.72
2024-02-09T03:58:48.260Z,98450.03
2024-02-09T04:01:15.799Z,98442.88
2024-02-09T04:03:42.659Z,98438.56
2024-02-09T04:06:09.446Z,98444.56
2024-02-09T04:08:36.431Z,98433.94
2024-02-09T04:11:03.042Z,98426.97
2024-02-09T04:13:32.906Z,98426.13
2024-02-09T04:16:01.951Z,98429.47
2024-02-09T04:18:30.667Z,98420.69
2024-02-09T04:20:57.867Z,98419.66
2024-02-09T04:23:24.738Z,98425.81
2024-02-09T04:25:54.380Z,98423.16
2024-02-09T04:28:20.929Z,98415.19
2024-02-09T04:30:48.317Z,98417.69
2024-02-09T04:33:17.433Z,98422.31
2024-02-09T04:35:44.509Z,98411.56
2024-02-09T04:38:11.329Z,98423.00
2024-02-09T04:40:38.430Z,98418.38
2024-02-09T04:43:07.063Z,98411.22
2024-02-09T04:45:33.845Z,98414.84
2024-02-09T04:48:00.657Z,98406.91
2024-02-09T04:50:27.465Z,98406.06
2024-02-09T04:52:56.077Z,98406.25
2024-02-09T04:55:23.000Z,98405.44
2024-02-09T04:57:49.550Z,98407.22
2024-02-09T05:00:16.781Z,98404.44
2024-02-09T05:02:45.401Z,98396.47
2024-02-09T05:05:12.451Z,98399.13
2024-02-09T05:07:39.960Z,98397.13
2024-02-09T05:10:07.068Z,98391.81
2024-02-09T05:12:33.639Z,98394.47
2024-02-09T05:15:00.453Z,98393.47
2024-02-09T05:17:27.093Z,98386.34
2024-02-09T05:19:59.128Z,98389.81
2024-02-09T05:22:31.375Z,98391.66
2024-02-09T05:24:58.201Z,98377.56
2024-02-09T05:27:24.875Z,98386.34
2024-02-09T05:29:56.072Z,98384.19
2024-02-09T05:32:22.767Z,98376.22
2024-02-09T05:34:49.445Z,98371.91
2024-02-09T05:37:18.522Z,98373.91
2024-02-09T05:39:46.398Z,98374.06
2024-02-09T05:42:13.008Z,98377.56
2024-02-09T05:44:39.703Z,98380.03
2024-02-09T05:47:06.327Z,98376.41
2024-02-09T05:49:33.107Z,98372.06
2024-02-09T05:52:01.011Z,98379.88
2024-02-09T05:54:27.857Z,98372.75
2024-02-09T05:56:54.447Z,98371.91
2024-02-09T05:59:22.822Z,98368.59
2024-02-09T06:01:50.070Z,98369.41
2024-02-09T06:04:17.531Z,98363.28
2024-02-09T06:06:47.531Z,98368.44
2024-02-09T06:09:14.302Z,98363.94
2024-02-09T06:11:43.097Z,98358.66
2024-02-09T06:14:10.936Z,98362.13
2024-02-09T06:16:39.218Z,98365.59
2024-02-09T06:19:05.931Z,98361.78
2024-02-09T06:21:32.739Z,98364.44
2024-02-09T06:23:59.227Z,98361.13
2024-02-09T06:26:26.061Z,98359.31
2024-02-09T06:28:53.427Z,98355.66
2024-02-09T06:31:27.211Z,98353.16
2024-02-09T06:33:57.202Z,98353.00
2024-02-09T06:36:24.874Z,98361.78
2024-02-09T06:38:54.150Z,98353.81
2024-02-09T06:41:20.827Z,98357.63
2024-02-09T06:43:48.965Z,98352.19
2024-02-09T06:46:18.004Z,98358.16
2024-02-09T06:48:48.541Z,98353.00
2024-02-09T06:51:22.560Z,98354.97
2024-02-09T06:53:50.316Z,98353.16
2024-02-09T06:56:16.903Z,98353.16
2024-02-09T06:58:47.265Z,98356.81
2024-02-09T07:01:15.006Z,98351.34
2024-02-09T07:03:41.967Z,98359.31
2024-02-09T07:06:09.644Z,98353.34
2024-02-09T07:08:42.187Z,98353.16
2024-02-09T07:11:14.275Z,98358.47
2024-02-09T07:13:44.826Z,98346.03
2024-02-09T07:16:11.644Z,98346.88
2024-02-09T07:18:40.928Z,98354.66
2024-02-09T07:21:09.417Z,98359.97
2024-02-09T07:23:38.118Z,98356.31
2024-02-09T07:26:09.193Z,98360.63
2024-02-09T07:28:36.342Z,98354.97
2024-02-09T07:31:03.296Z,98360.28
2024-02-09T07:33:29.978Z,98360.16
2024-02-09T07:35:56.590Z,98354.66
2024-02-09T07:38:23.126Z,98366.09
2024-02-09T07:40:49.651Z,98365.13
2024-02-09T07:43:16.292Z,98365.13
2024-02-09T07:45:43.265Z,98361.47
2024-02-09T07:48:09.983Z,98360.63
2024-02-09T07:50:41.998Z,98362.28
2024-02-09T07:53:09.770Z,98367.59
2024-02-09T07:55:36.361Z,98359.47
2024-02-09T07:58:03.247Z,98367.09
2024-02-09T08:00:29.743Z,98372.41
2024-02-09T08:02:56.268Z,98365.09
2024-02-09T08:05:22.732Z,98365.94
2024-02-09T08:07:52.422Z,98366.59
2024-02-09T08:10:21.710Z,98372.56
2024-02-09T08:12:48.623Z,98377.72
2024-02-09T08:15:15.307Z,98358.81
2024-02-09T08:17:52.797Z,98369.25
2024-02-09T08:20:21.052Z,98363.78
2024-02-09T08:22:47.959Z,98370.91
2024-02-09T08:25:15.394Z,98360.13
2024-02-09T08:27:42.484Z,98366.25
2024-02-09T08:30:10.678Z,98369.72
2024-02-09T08:32:39.453Z,98367.91
2024-02-09T08:35:06.866Z,98368.56
2024-02-09T08:37:33.627Z,98374.72
2024-02-09T08:40:01.211Z,98373.53
2024-02-09T08:42:28.070Z,98370.06
2024-02-09T08:44:55.190Z,98373.53
2024-02-09T08:47:24.519Z,98368.91
2024-02-09T08:49:51.103Z,98367.75
2024-02-09T08:52:19.006Z,98373.53
2024-02-09T08:54:51.488Z,98382.34
2024-02-09T08:57:19.753Z,98369.72
2024-02-09T08:59:46.339Z,98371.38
2024-02-09T09:02:13.346Z,98376.69
2024-02-09T09:04:40.666Z,98389.00
2024-02-09T09:07:07.427Z,98392.47
2024-02-09T09:09:35.266Z,98373.69
2024-02-09T09:12:07.870Z,98374.34
2024-02-09T09:14:37.683Z,98391.94
2024-02-09T09:17:12.652Z,98387.47
2024-02-09T09:19:47.939Z,98380.81
2024-02-09T09:22:14.650Z,98383.16
2024-02-09T09:24:41.258Z,98383.16
2024-02-09T09:27:09.719Z,98387.44
2024-02-09T09:29:36.641Z,98387.28
2024-02-09T09:32:03.272Z,98392.94
2024-02-09T09:34:29.898Z,98391.44
2024-02-09T09:36:56.400Z,98385.28
2024-02-09T09:39:23.887Z,98392.28
2024-02-09T09:41:55.223Z,98384.09
2024-02-09T09:44:27.777Z,98376.81
2024-02-09T09:46:54.611Z,98396.91
2024-02-09T09:49:25.334Z,98393.72
2024-02-09T09:51:53.045Z,98400.53
2024-02-09T09:54:23.920Z,98408.50
2024-02-09T09:56:50.835Z,98403.03
2024-02-09T09:59:20.217Z,98405.00
2024-02-09T10:01:53.199Z,98406.97
2024-02-09T10:04:20.303Z,98409.97
2024-02-09T10:06:47.048Z,98405.94
2024-02-09T10:09:13.986Z,98399.47
2024-02-09T10:11:43.957Z,98400.59
2024-02-09T10:14:15.758Z,98405.06
2024-02-09T10:16:45.475Z,98407.19
2024-02-09T10:19:15.678Z,98406.03
2024-02-09T10:21:50.857Z,98404.66
2024-02-09T10:24:23.510Z,98411.66
2024-02-09T10:26:51.473Z,98415.63
2024-02-09T10:29:21.745Z,98420.91
2024-02-09T10:31:49.889Z,98411.06
2024-02-09T10:34:16.748Z,98423.88
2024-02-09T10:36:46.531Z,98420.03
2024-02-09T10:39:13.404Z,98418.50
2024-02-09T10:41:40.898Z,98421.13
2024-02-09T10:44:10.569Z,98424.56
2024-02-09T10:46:43.237Z,98413.56
2024-02-09T10:49:11.036Z,98417.03
2024-02-09T10:51:41.048Z,98428.81
2024-02-09T10:54:18.832Z,98423.00
2024-02-09T10:56:53.157Z,98421.78
2024-02-09T10:59:24.067Z,98423.25
2024-02-09T11:01:51.225Z,98422.28
2024-02-09T11:04:17.989Z,98427.75
2024-02-09T11:06:45.083Z,98434.28
2024-02-09T11:09:12.026Z,98431.59
2024-02-09T11:11:40.670Z,98438.59
2024-02-09T11:14:12.740Z,98435.28
2024-02-09T11:16:47.965Z,98431.13
2024-02-09T11:19:17.365Z,98429.50
2024-02-09T11:21:56.794Z,98436.81
2024-02-09T11:24:26.985Z,98423.03
2024-02-09T11:26:54.402Z,98427.69
2024-02-09T11:29:21.664Z,98435.03
2024-02-09T11:31:52.097Z,98429.22
2024-02-09T11:34:21.096Z,98433.91
2024-02-09T11:36:47.849Z,98436.94
2024-02-09T11:39:14.833Z,98443.44
2024-02-09T11:41:41.402Z,98449.47
2024-02-09T11:44:09.250Z,98444.47
2024-02-09T11:46:37.252Z,98446.63
2024-02-09T11:49:07.784Z,98450.47
2024-02-09T11:51:35.459Z,98442.69
2024-02-09T11:54:04.415Z,98441.03
2024-02-09T11:56:32.463Z,98441.03
2024-02-09T11:58:59.262Z,98437.34
2024-02-09T12:01:26.273Z,98443.34
2024-02-09T12:03:53.654Z,98441.31
2024-02-09T12:06:22.564Z,98447.31
2024-02-09T12:08:55.262Z,98439.31
2024-02-09T12:11:21.971Z,98456.13
2024-02-09T12:13:49.300Z,98452.63
2024-02-09T12:16:19.240Z,98461.44
2024-02-09T12:18:56.445Z,98451.44
2024-02-09T12:21:23.342Z,98449.63
2024-02-09T12:23:51.495Z,98451.44
2024-02-09T12:26:21.834Z,98456.44
2024-02-09T12:28:49.560Z,98458.63
2024-02-09T12:31:23.350Z,98462.25
2024-02-09T12:33:51.820Z,98469.59
2024-02-09T12:36:21.993Z,98471.59
2024-02-09T12:38:55.959Z,98472.63
2024-02-09T12:41:23.376Z,98477.28
2024-02-09T12:44:03.951Z,98476.09
2024-02-09T12:46:31.074Z,98474.06
2024-02-09T12:48:58.072Z,98468.59
2024-02-09T12:51:25.046Z,98465.59
2024-02-09T12:53:51.836Z,98469.53
2024-02-09T12:56:19.218Z,98469.19
2024-02-09T12:58:45.907Z,98472.38
2024-02-09T13:01:12.859Z,98473.84
2024-02-09T13:03:41.584Z,98473.84
2024-02-09T13:06:09.033Z,98473.50
2024-02-09T13:08:38.339Z,98478.63
2024-02-09T13:11:08.031Z,98476.44
2024-02-09T13:13:38.769Z,98477.94
2024-02-09T13:16:07.052Z,98476.59
2024-02-09T13:18:33.933Z,98481.38
2024-02-09T13:21:03.512Z,98487.19
2024-02-09T13:23:30.409Z,98485.66
2024-02-09T13:26:00.209Z,98482.63
2024-02-09T13:28:31.860Z,98483.13
2024-02-09T13:30:59.407Z,98475.06
2024-02-09T13:33:26.149Z,98476.38
2024-02-09T13:35:52.942Z,98475.19
2024-02-09T13:38:19.562Z,98481.47
2024-02-09T13:40:49.947Z,98479.25
2024-02-09T13:43:16.721Z,98483.25
2024-02-09T13:45:45.797Z,98478.38
2024-02-09T13:48:12.492Z,98480.34
2024-02-09T13:50:39.149Z,98472.63
2024-02-09T13:53:06.163Z,98466.75
2024-02-09T13:55:34.634Z,98461.19
2024-02-09T13:58:01.430Z,98469.44
2024-02-09T14:00:28.278Z,98464.56
2024-02-09T14:02:54.827Z,98472.03
2024-02-09T14:05:23.230Z,98468.34
2024-02-09T14:07:52.799Z,98470.03
2024-02-09T14:10:23.362Z,98474.19
2024-02-09T14:12:50.030Z,98466.63
2024-02-09T14:15:16.929Z,98473.63
2024-02-09T14:17:45.015Z,98469.09
2024-02-09T14:20:15.304Z,98467.00
2024-02-09T14:22:43.075Z,98477.22
2024-02-09T14:25:10.937Z,98477.22
2024-02-09T14:27:39.452Z,98470.19
2024-02-09T14:30:11.498Z,98470.41
2024-02-09T14:32:38.123Z,98470.19
2024-02-09T14:35:06.513Z,98470.56
2024-02-09T14:37:33.045Z,98474.41
2024-02-09T14:39:59.703Z,98472.75
2024-02-09T14:42:27.790Z,98477.06
2024-02-09T14:44:54.507Z,98477.06
2024-02-09T14:47:21.979Z,98482.41
2024-02-09T14:49:51.910Z,98478.91
2024-02-09T14:52:19.672Z,98479.75
2024-02-09T14:54:47.888Z,98480.56
2024-02-09T14:57:15.564Z,98467.25
2024-02-09T14:59:42.858Z,98466.63
2024-02-09T15:02:14.754Z,98468.47
2024-02-09T15:04:43.850Z,98478.47
2024-02-09T15:07:11.675Z,98470.47
2024-02-09T15:09:38.516Z,98472.31
2024-02-09T15:12:07.056Z,98475.97
2024-02-09T15:14:33.985Z,98473.94
2024-02-09T15:17:01.975Z,98473.94
2024-02-09T15:19:31.108Z,98477.81
2024-02-09T15:21:57.712Z,98468.16
2024-02-09T15:24:26.868Z,98470.81
2024-02-09T15:26:53.689Z,98473.50
2024-02-09T15:29:24.183Z,98475.50
2024-02-09T15:31:50.865Z,98473.84
2024-02-09T15:34:17.972Z,98475.69
2024-02-09T15:36:46.666Z,98475.88
2024-02-09T15:39:15.791Z,98475.03
2024-02-09T15:41:44.505Z,98474.22
2024-02-09T15:44:11.726Z,98472.75
2024-02-09T15:46:39.196Z,98474.75
2024-02-09T15:49:05.996Z,98481.09
2024-02-09T15:51:32.548Z,98483.94
2024-02-09T15:53:59.961Z,98483.09
2024-02-09T15:56:33.050Z,98470.78
2024-02-09T15:59:01.333Z,98473.63
2024-02-09T16:01:35.210Z,98474.63
2024-02-09T16:04:02.365Z,98485.31
2024-02-09T16:06:29.159Z,98480.13
2024-02-09T16:08:56.069Z,98475.00
2024-02-09T16:11:23.885Z,98481.34
2024-02-09T16:13:50.433Z,98474.53
2024-02-09T16:16:29.493Z,98477.19
2024-02-09T16:18:56.811Z,98476.38
2024-02-09T16:21:23.593Z,98477.56
2024-02-09T16:23:51.836Z,98485.56
2024-02-09T16:26:22.327Z,98480.38
2024-02-09T16:28:49.900Z,98481.41
2024-02-09T16:31:18.158Z,98487.91
2024-02-09T16:33:45.528Z,98486.06
2024-02-09T16:36:12.579Z,98483.59
2024-02-09T16:38:39.674Z,98483.59
2024-02-09T16:41:08.041Z,98487.44
2024-02-09T16:43:43.750Z,98486.97
2024-02-09T16:46:10.737Z,98486.31
2024-02-09T16:48:37.635Z,98483.81
2024-02-09T16:51:04.554Z,98486.69
2024-02-09T16:53:31.311Z,98488.34
2024-02-09T16:55:59.575Z,98484.19
2024-02-09T16:58:26.214Z,98484.19
2024-02-09T17:00:53.125Z,98488.03
2024-02-09T17:03:21.915Z,98490.22
2024-02-09T17:05:49.198Z,98490.41
2024-02-09T17:08:15.952Z,98489.75
2024-02-09T17:10:42.813Z,98490.09
2024-02-09T17:13:09.891Z,98485.13
2024-02-09T17:15:38.911Z,98487.78
2024-02-09T17:18:09.622Z,98481.34
2024-02-09T17:20:39.749Z,98480.50
2024-02-09T17:23:07.050Z,98478.84
2024-02-09T17:25:37.162Z,98482.34
2024-02-09T17:28:09.302Z,98485.00
2024-02-09T17:30:36.169Z,98488.50
2024-02-09T17:33:02.900Z,98482.16
2024-02-09T17:35:34.858Z,98486.31
2024-02-09T17:38:01.563Z,98485.13
2024-02-09T17:40:28.295Z,98480.63
2024-02-09T17:42:57.486Z,98485.97
2024-02-09T17:45:24.145Z,98487.78
2024-02-09T17:47:54.706Z,98485.28
2024-02-09T17:50:22.497Z,98496.78
2024-02-09T17:52:49.420Z,98501.47
2024-02-09T17:55:20.285Z,98502.66
2024-02-09T17:57:50.815Z,98505.66
2024-02-09T18:00:21.262Z,98501.16
2024-02-09T18:02:48.278Z,98492.34
2024-02-09T18:05:15.176Z,98500.69
2024-02-09T18:07:43.309Z,98502.03
2024-02-09T18:10:10.336Z,98499.34
2024-02-09T18:12:37.062Z,98511.69
2024-02-09T18:15:11.028Z,98517.16
2024-02-09T18:17:43.768Z,98510.34
2024-02-09T18:20:11.548Z,98504.06
2024-02-09T18:22:44.343Z,98503.38
2024-02-09T18:25:19.508Z,98509.72
2024-02-09T18:28:03.953Z,98509.22
2024-02-09T18:30:42.934Z,98505.09
2024-02-09T18:33:09.733Z,98514.41
2024-02-09T18:35:52.419Z,98515.59
2024-02-09T18:38:19.115Z,98523.28
2024-02-09T18:40:46.362Z,98515.81
2024-02-09T18:43:12.907Z,98520.31
2024-02-09T18:45:39.665Z,98523.13
2024-02-09T18:48:07.235Z,98521.47
2024-02-09T18:50:33.855Z,98526.13
2024-02-09T18:53:05.808Z,98525.66
2024-02-09T18:55:38.197Z,98524.84
2024-02-09T18:58:04.803Z,98524.16
2024-02-09T19:00:36.862Z,98525.31
2024-02-09T19:03:03.973Z,98526.50
2024-02-09T19:05:39.459Z,98531.81
2024-02-09T19:08:09.355Z,98541.47
2024-02-09T19:10:41.861Z,98530.00
2024-02-09T19:13:10.490Z,98536.13
2024-02-09T19:15:40.410Z,98537.16
2024-02-09T19:18:08.082Z,98540.78
2024-02-09T19:20:48.540Z,98531.97
2024-02-09T19:23:17.143Z,98530.16
2024-02-09T19:25:49.568Z,98530.97
2024-02-09T19:28:16.456Z,98533.63
2024-02-09T19:30:44.824Z,98530.00
2024-02-09T19:33:13.702Z,98537.78
2024-02-09T19:36:11.223Z,98530.63
2024-02-09T19:38:46.260Z,98535.00
2024-02-09T19:41:15.947Z,98532.47
2024-02-09T19:43:44.144Z,98530.97
2024-02-09T19:46:13.736Z,98536.13
2024-02-09T19:48:41.654Z,98542.47
2024-02-09T19:51:11.448Z,98544.47
2024-02-09T19:53:38.260Z,98533.97
2024-02-09T19:56:05.668Z,98537.47
2024-02-09T19:58:32.472Z,98531.31
2024-02-09T20:01:00.397Z,98531.31
2024-02-09T20:03:28.159Z,98533.00
2024-02-09T20:05:56.255Z,98535.81
2024-02-09T20:08:23.598Z,98533.00
2024-02-09T20:10:50.755Z,98542.78
2024-02-09T20:13:21.095Z,98538.47
2024-02-09T20:15:48.185Z,98537.66
2024-02-09T20:18:14.741Z,98536.97
2024-02-09T20:20:45.362Z,98539.63
2024-02-09T20:23:14.519Z,98532.81
2024-02-09T20:25:41.352Z,98533.34
2024-02-09T20:28:08.077Z,98531.38
2024-02-09T20:30:36.999Z,98538.50
2024-02-09T20:33:07.068Z,98540.66
2024-02-09T20:35:36.636Z,98538.84
2024-02-09T20:38:06.733Z,98545.16
2024-02-09T20:40:35.508Z,98543.50
2024-02-09T20:43:03.137Z,98545.50
2024-02-09T20:45:30.898Z,98542.34
2024-02-09T20:47:59.446Z,98550.69
2024-02-09T20:50:33.954Z,98542.84
2024-02-09T20:53:06.967Z,98550.34
2024-02-09T20:55:36.191Z,98547.34
2024-02-09T20:58:04.961Z,98546.19
2024-02-09T21:00:40.293Z,98539.56
2024-02-09T21:03:09.472Z,98541.56
2024-02-09T21:05:40.445Z,98540.25
2024-02-09T21:08:08.048Z,98539.91
2024-02-09T21:10:45.036Z,98542.91
2024-02-09T21:13:20.708Z,98539.56
2024-02-09T21:15:56.970Z,98540.59
2024-02-09T21:18:30.699Z,98550.72
2024-02-09T21:20:59.048Z,98544.72
2024-02-09T21:23:30.295Z,98545.22
2024-02-09T21:25:58.918Z,98546.22
2024-02-09T21:28:38.950Z,98542.75
2024-02-09T21:31:06.872Z,98544.41
2024-02-09T21:34:00.078Z,98545.22
2024-02-09T21:36:27.927Z,98549.72
2024-02-09T21:38:55.152Z,98537.44
2024-02-09T21:41:21.715Z,98542.91
2024-02-09T21:43:48.370Z,98550.88
2024-02-09T21:46:14.839Z,98547.38
2024-02-09T21:48:41.406Z,98543.22
2024-02-09T21:51:11.101Z,98544.91
2024-02-09T21:53:37.879Z,98547.38
2024-02-09T21:56:07.879Z,98548.88
2024-02-09T21:58:34.494Z,98560.34
2024-02-09T22:01:01.011Z,98557.88
2024-02-09T22:03:28.222Z,98560.34
2024-02-09T22:05:57.054Z,98561.16
2024-02-09T22:11:12.256Z,98564.34
2024-02-09T22:13:39.915Z,98564.84
2024-02-09T22:16:08.691Z,98563.81
2024-02-09T22:18:37.090Z,98557.03
2024-02-09T22:21:09.450Z,98558.69
2024-02-09T22:23:43.563Z,98567.50
2024-02-09T22:26:10.448Z,98564.16
2024-02-09T22:28:46.532Z,98562.34
2024-02-09T22:31:15.631Z,98565.66
2024-02-09T22:33:43.377Z,98563.81
2024-02-09T22:36:09.980Z,98557.34
2024-02-09T22:38:38.508Z,98558.22
2024-02-09T22:41:05.187Z,98568.84
2024-02-09T22:43:34.008Z,98562.66
2024-02-09T22:46:00.672Z,98559.84
2024-02-09T22:48:29.572Z,98563.19
2024-02-09T22:50:56.048Z,98564.66
2024-02-09T22:53:23.557Z,98556.53
2024-02-09T22:55:52.372Z,98561.66
2024-02-09T22:58:18.995Z,98556.03
2024-02-09T23:00:45.813Z,98560.34
2024-02-09T23:03:12.265Z,98552.19
2024-02-09T23:05:39.118Z,98563.00
2024-02-09T23:08:05.873Z,98565.66
2024-02-09T23:10:39.718Z,98566.69
2024-02-09T23:13:06.526Z,98570.16
2024-02-09T23:15:33.179Z,98566.00
2024-02-09T23:17:59.976Z,98567.50
2024-02-09T23:20:26.552Z,98570.16
2024-02-09T23:22:54.724Z,98580.78
2024-02-09T23:25:22.401Z,98581.13
2024-02-09T23:27:51.434Z,98585.59
2024-02-09T23:30:18.106Z,98580.59
2024-02-09T23:32:44.877Z,98589.09
2024-02-09T23:35:26.837Z,98582.28
2024-02-09T23:37:53.832Z,98588.94
2024-02-09T23:40:20.643Z,98594.59
2024-02-09T23:42:47.104Z,98590.25
2024-02-09T23:45:13.771Z,98585.09
2024-02-09T23:47:40.595Z,98593.09
2024-02-09T23:50:09.325Z,98598.72
2024-02-09T23:52:37.290Z,98598.38
2024-02-09T23:55:04.201Z,98602.69
2024-02-09T23:57:32.119Z,98599.88
2024-02-09T23:59:58.695Z,98593.06
